Time;durP1;ratioP1;P1;durP2;ratioP2;P2;SDS_P1;SDS_P2;PMS_P1;PMS_P2;Temp;Humidity;BMP_temperature;BMP_pressure;BME280_temperature;BME280_humidity;BME280_pressure;Samples;Min_cycle;Max_cycle;Signal;HPM_P1;HPM_P2
2021/08/12 00:01:02;;;;;;;7.37;6.67;;;;;;;15.40;77.41;102142.59;2617211;54;20150;-75
2021/08/12 00:03:27;;;;;;;7.07;6.07;;;;;;;15.38;77.47;102138.25;2617247;54;20135;-76
2021/08/12 00:05:52;;;;;;;6.40;5.77;;;;;;;15.36;77.06;102143.38;2617271;54;20143;-76
2021/08/12 00:08:18;;;;;;;6.43;5.83;;;;;;;15.32;77.13;102141.53;2617345;46;20159;-77
2021/08/12 00:10:43;;;;;;;7.13;6.43;;;;;;;15.31;76.82;102144.97;2617261;54;20159;-76
2021/08/12 00:13:08;;;;;;;7.13;6.43;;;;;;;15.30;76.90;102142.34;2617161;54;20127;-77
2021/08/12 00:15:34;;;;;;;6.80;6.20;;;;;;;15.27;76.97;102139.69;2617278;46;20183;-77
2021/08/12 00:17:59;;;;;;;7.83;7.00;;;;;;;15.22;77.22;102137.03;2617103;54;20171;-76
2021/08/12 00:20:25;;;;;;;6.80;6.20;;;;;;;15.20;77.10;102138.69;2617188;54;20227;-78
2021/08/12 00:22:50;;;;;;;6.90;6.20;;;;;;;15.18;76.82;102136.91;2617569;54;20227;-76
2021/08/12 00:25:15;;;;;;;7.60;6.90;;;;;;;15.16;77.05;102136.91;2617158;54;20162;-76
2021/08/12 00:27:41;;;;;;;6.67;6.07;;;;;;;15.15;77.20;102131.69;2617151;47;20155;-76
2021/08/12 00:30:06;;;;;;;5.47;4.97;;;;;;;15.17;77.26;102138.63;2617069;54;20134;-75
2021/08/12 00:32:32;;;;;;;7.50;6.80;;;;;;;15.13;77.14;102139.41;2617214;54;20257;-77
2021/08/12 00:34:57;;;;;;;7.93;7.13;;;;;;;15.09;77.43;102134.13;2617601;46;20139;-76
2021/08/12 00:37:22;;;;;;;7.03;6.23;;;;;;;15.07;77.40;102131.53;2617129;47;20250;-76
2021/08/12 00:39:47;;;;;;;9.67;6.97;;;;;;;15.03;77.25;102134.00;2616908;54;20150;-77
2021/08/12 00:42:13;;;;;;;5.73;5.23;;;;;;;15.07;77.14;102133.25;2617311;47;20127;-77
2021/08/12 00:44:38;;;;;;;6.40;5.80;;;;;;;15.15;77.22;102129.13;2617394;54;20155;-75
2021/08/12 00:47:04;;;;;;;7.50;6.80;;;;;;;15.21;77.92;102124.97;2617000;54;20147;-77
2021/08/12 00:49:29;;;;;;;7.03;6.30;;;;;;;15.25;77.84;102128.47;2617578;39;20546;-77
2021/08/12 00:51:55;;;;;;;7.40;6.63;;;;;;;15.29;77.73;102125.97;2617680;39;20521;-76
2021/08/12 00:54:20;;;;;;;6.53;5.93;;;;;;;15.33;77.85;102122.63;2617154;54;20147;-75
2021/08/12 00:56:47;;;;;;;6.30;5.70;;;;;;;15.33;77.97;102124.34;2617183;54;20173;-78
2021/08/12 00:59:13;;;;;;;5.73;5.13;;;;;;;15.28;78.39;102124.22;2617437;39;20528;-76
2021/08/12 01:01:38;;;;;;;5.70;4.97;;;;;;;15.30;78.04;102121.69;2617062;47;20223;-75
2021/08/12 01:04:03;;;;;;;7.07;6.37;;;;;;;15.34;78.14;102118.38;2617351;46;20211;-75
2021/08/12 01:06:45;;;;;;;5.13;4.73;;;;;;;15.33;77.95;102124.34;2616407;54;20219;-76
2021/08/12 01:09:23;;;;;;;6.03;5.43;;;;;;;15.32;78.33;102132.91;2616762;54;20172;-76
2021/08/12 01:11:57;;;;;;;6.53;5.80;;;;;;;15.24;78.15;102125.00;2617168;54;20219;-78
2021/08/12 01:14:51;;;;;;;6.63;6.03;;;;;;;15.16;78.48;102128.28;2618328;39;20563;-78
2021/08/12 01:17:25;;;;;;;4.87;4.30;;;;;;;15.13;78.54;102125.63;2617045;54;20143;-78
2021/08/12 01:20:05;;;;;;;5.97;5.47;;;;;;;15.07;78.44;102128.06;2616939;54;20147;-75
2021/08/12 01:22:38;;;;;;;8.47;6.70;;;;;;;15.06;78.65;102134.06;2617074;54;20127;-76
2021/08/12 01:25:09;;;;;;;7.00;6.40;;;;;;;15.00;78.75;102134.81;2617007;54;20155;-76
2021/08/12 01:27:37;;;;;;;7.03;6.33;;;;;;;14.96;78.88;102129.56;2691549;36;20292;-76
2021/08/12 01:30:08;;;;;;;7.10;6.40;;;;;;;14.90;78.63;102125.13;2617187;54;20123;-75
2021/08/12 01:32:46;;;;;;;6.97;6.37;;;;;;;14.85;78.51;102131.00;2616543;54;20124;-77
2021/08/12 01:35:15;;;;;;;6.13;5.50;;;;;;;14.78;78.40;102130.00;2616920;54;20143;-77
2021/08/12 01:37:46;;;;;;;5.83;5.33;;;;;;;14.78;78.24;102136.88;2617177;54;20150;-77
2021/08/12 01:40:14;;;;;;;6.83;6.17;;;;;;;14.80;78.49;102135.19;2616650;54;20131;-77
2021/08/12 01:42:40;;;;;;;6.47;5.30;;;;;;;14.80;78.20;102125.75;2616821;54;20108;-77
2021/08/12 01:45:06;;;;;;;8.07;7.27;;;;;;;14.75;79.05;102135.09;2616902;54;20654;-76
2021/08/12 01:47:33;;;;;;;7.70;7.00;;;;;;;14.78;78.61;102131.72;2616885;54;20158;-77
2021/08/12 01:50:03;;;;;;;7.73;6.97;;;;;;;14.71;78.91;102143.59;2616853;54;20130;-76
2021/08/12 01:52:32;;;;;;;6.70;5.97;;;;;;;14.66;78.72;102134.88;2616762;54;20153;-77
2021/08/12 01:54:58;;;;;;;6.67;5.97;;;;;;;14.64;78.58;102135.69;2616751;54;20131;-77
2021/08/12 01:57:23;;;;;;;6.53;5.87;;;;;;;14.60;78.51;102133.88;2616654;54;20147;-77
2021/08/12 01:59:49;;;;;;;7.00;6.30;;;;;;;14.55;78.32;102133.75;2616526;47;20135;-77
2021/08/12 02:02:15;;;;;;;5.03;4.53;;;;;;;14.53;78.41;102134.53;2616660;54;20127;-77
2021/08/12 02:04:42;;;;;;;6.10;5.50;;;;;;;14.49;78.40;102131.03;2616724;54;20131;-76
2021/08/12 02:07:11;;;;;;;6.13;5.57;;;;;;;14.48;78.41;102131.88;2616574;54;20139;-78
2021/08/12 02:09:36;;;;;;;7.30;5.80;;;;;;;14.47;78.89;102124.97;2616452;54;20149;-77
2021/08/12 02:12:08;;;;;;;6.57;5.97;;;;;;;14.62;78.86;102127.03;2616553;54;20933;-76
2021/08/12 02:14:34;;;;;;;7.80;7.10;;;;;;;14.72;79.39;102119.56;2616438;54;20139;-76
2021/08/12 02:16:59;;;;;;;6.47;5.87;;;;;;;14.82;79.49;102108.59;2616778;54;20138;-75
2021/08/12 02:19:25;;;;;;;6.63;6.03;;;;;;;14.87;79.69;102114.72;2616845;54;20139;-77
2021/08/12 02:21:58;;;;;;;6.07;5.47;;;;;;;14.87;79.78;102108.72;2616864;54;20148;-76
2021/08/12 02:24:35;;;;;;;5.13;4.63;;;;;;;14.88;79.32;102108.72;2617578;54;20135;-78
2021/08/12 02:27:05;;;;;;;6.57;5.97;;;;;;;14.92;79.20;102107.97;2617465;54;20151;-77
2021/08/12 02:29:33;;;;;;;6.30;5.80;;;;;;;14.79;79.08;102105.97;2617630;54;20127;-76
2021/08/12 02:32:01;;;;;;;7.70;7.00;;;;;;;14.69;79.23;102104.00;2617395;54;20641;-77
2021/08/12 02:34:27;;;;;;;7.53;6.70;;;;;;;14.66;79.58;102110.78;2617512;54;20119;-77
2021/08/12 02:36:54;;;;;;;7.43;6.73;;;;;;;14.62;79.54;102117.59;2617792;54;20687;-77
2021/08/12 02:39:20;;;;;;;6.20;5.30;;;;;;;14.64;79.80;102117.63;2617566;54;20131;-77
2021/08/12 02:41:46;;;;;;;7.43;6.67;;;;;;;14.61;79.64;102117.56;2616904;51;20127;-77
2021/08/12 02:44:12;;;;;;;6.77;6.13;;;;;;;14.56;79.56;102109.72;2617460;54;20120;-76
2021/08/12 02:46:39;;;;;;;7.13;6.53;;;;;;;14.52;79.69;102118.22;2617629;54;20135;-77
2021/08/12 02:49:06;;;;;;;6.73;6.13;;;;;;;14.46;79.29;102110.31;2617710;54;20652;-77
2021/08/12 02:51:33;;;;;;;7.23;6.47;;;;;;;14.40;79.26;102110.19;2617581;54;20138;-77
2021/08/12 02:54:00;;;;;;;7.27;6.57;;;;;;;14.33;79.01;102113.47;2617629;54;20202;-76
2021/08/12 02:56:25;;;;;;;7.03;6.33;;;;;;;14.28;78.88;102114.19;2617327;54;20222;-75
2021/08/12 02:58:51;;;;;;;6.17;5.57;;;;;;;14.22;78.99;102108.88;2617351;54;20116;-77
2021/08/12 03:01:18;;;;;;;5.83;5.27;;;;;;;14.18;78.58;102107.03;2617422;54;20127;-76
2021/08/12 03:03:46;;;;;;;5.90;5.33;;;;;;;14.13;78.56;102106.03;2617252;54;20649;-75
2021/08/12 03:06:16;;;;;;;5.80;5.23;;;;;;;14.11;78.37;102105.09;2617532;54;20136;-77
2021/08/12 03:08:47;;;;;;;5.77;5.27;;;;;;;14.07;78.47;102103.28;2617169;54;20158;-76
2021/08/12 03:11:15;;;;;;;5.73;5.23;;;;;;;14.02;78.29;102103.19;2617263;54;20151;-77
2021/08/12 03:13:42;;;;;;;6.77;6.10;;;;;;;13.99;78.64;102105.66;2620609;54;20123;-77
2021/08/12 03:16:07;;;;;;;5.53;5.03;;;;;;;13.96;78.59;102110.75;2627346;54;20126;-77
2021/08/12 03:18:33;;;;;;;4.77;4.33;;;;;;;13.95;78.45;102098.69;2622196;46;20656;-77
2021/08/12 03:21:07;;;;;;;3.73;3.43;;;;;;;13.92;78.55;102105.47;2617512;54;20219;-77
2021/08/12 03:23:33;;;;;;;5.87;5.20;;;;;;;13.89;78.57;102107.97;2617594;39;20959;-76
2021/08/12 03:25:58;;;;;;;5.33;4.57;;;;;;;13.85;78.39;102111.31;2617163;54;20123;-75
2021/08/12 03:28:23;;;;;;;4.20;3.80;;;;;;;13.85;78.35;102114.75;2617038;54;20131;-76
2021/08/12 03:30:49;;;;;;;4.47;4.07;;;;;;;13.81;78.34;102112.91;2617204;46;20124;-76
2021/08/12 03:33:14;;;;;;;5.77;5.27;;;;;;;13.76;78.39;102113.63;2617030;54;20121;-76
2021/08/12 03:35:39;;;;;;;5.93;5.43;;;;;;;13.74;78.61;102117.84;2617543;47;20131;-77
2021/08/12 03:38:04;;;;;;;6.17;5.20;;;;;;;13.74;78.36;102125.59;2617228;54;20144;-77
2021/08/12 03:40:30;;;;;;;6.60;6.00;;;;;;;13.72;78.52;102115.25;2616986;47;20177;-75
2021/08/12 03:42:55;;;;;;;7.10;6.10;;;;;;;13.71;78.59;102125.53;2617849;46;20119;-77
2021/08/12 03:45:20;;;;;;;6.80;6.10;;;;;;;13.70;78.57;102126.31;2617531;54;20657;-76
2021/08/12 03:47:45;;;;;;;5.90;5.40;;;;;;;13.67;78.75;102132.25;2616533;47;20208;-77
2021/08/12 03:50:11;;;;;;;7.13;6.00;;;;;;;13.65;78.56;102128.78;2617175;54;20127;-77
2021/08/12 03:52:36;;;;;;;7.13;6.43;;;;;;;13.65;78.83;102130.47;2617171;54;20150;-76
2021/08/12 03:55:01;;;;;;;7.53;6.27;;;;;;;13.64;78.77;102137.34;2617312;54;20214;-77
2021/08/12 03:57:26;;;;;;;6.40;5.70;;;;;;;13.65;78.57;102133.94;2615408;54;20699;-76
2021/08/12 03:59:52;;;;;;;6.80;6.17;;;;;;;13.66;78.83;102139.94;2617165;54;20136;-77
2021/08/12 04:02:17;;;;;;;6.90;6.20;;;;;;;13.67;79.12;102147.72;2617203;46;20152;-77
2021/08/12 04:04:42;;;;;;;6.93;6.20;;;;;;;13.68;78.97;102146.00;2616571;51;20138;-77
2021/08/12 04:07:07;;;;;;;5.47;4.97;;;;;;;13.70;78.86;102137.50;2617354;46;20952;-76
2021/08/12 04:09:33;;;;;;;7.07;6.37;;;;;;;13.70;78.98;102145.22;2617150;54;20131;-76
2021/08/12 04:11:58;;;;;;;7.10;6.07;;;;;;;13.74;79.08;102143.59;2617131;47;20145;-77
2021/08/12 04:14:23;;;;;;;7.53;5.97;;;;;;;13.76;78.92;102145.38;2617080;54;20222;-76
2021/08/12 04:16:51;;;;;;;7.00;6.30;;;;;;;13.77;78.96;102143.69;2616899;54;20219;-75
2021/08/12 04:19:16;;;;;;;5.13;4.60;;;;;;;13.84;78.98;102137.88;2617130;54;20160;-77
2021/08/12 04:21:41;;;;;;;7.40;6.70;;;;;;;13.87;79.39;102131.13;2617027;54;20749;-77
2021/08/12 04:24:07;;;;;;;5.90;5.40;;;;;;;13.96;79.54;102133.06;2635145;36;20174;-77
2021/08/12 04:26:32;;;;;;;8.23;7.47;;;;;;;14.01;79.95;102141.78;2616495;54;20132;-77
2021/08/12 04:28:58;;;;;;;7.43;6.70;;;;;;;14.05;80.03;102146.19;2616928;54;20111;-77
2021/08/12 04:31:23;;;;;;;7.90;7.20;;;;;;;14.08;80.08;102144.53;2617066;54;20703;-77
2021/08/12 04:33:49;;;;;;;9.40;8.50;;;;;;;14.13;80.08;102136.94;2617105;54;20219;-76
2021/08/12 04:36:14;;;;;;;8.60;7.77;;;;;;;14.16;80.01;102137.00;2616931;54;20174;-78
2021/08/12 04:38:40;;;;;;;9.33;7.90;;;;;;;14.24;80.02;102132.97;2617069;54;20139;-76
2021/08/12 04:41:05;;;;;;;9.30;8.50;;;;;;;14.27;80.19;102126.19;2617435;46;20644;-75
2021/08/12 04:43:30;;;;;;;10.60;9.60;;;;;;;14.35;80.09;102139.25;2617061;47;20167;-76
2021/08/12 04:45:56;;;;;;;9.90;9.00;;;;;;;14.41;80.04;102126.53;2617136;54;20135;-76
2021/08/12 04:48:21;;;;;;;7.60;6.80;;;;;;;14.44;80.22;102127.47;2617591;54;20195;-77
2021/08/12 04:50:46;;;;;;;9.80;8.93;;;;;;;14.47;80.29;102124.97;2617715;39;20509;-77
2021/08/12 04:53:11;;;;;;;9.97;9.00;;;;;;;14.50;80.34;102126.75;2617090;54;20123;-76
2021/08/12 04:55:37;;;;;;;8.57;7.27;;;;;;;14.53;80.21;102116.50;2617655;39;20526;-76
2021/08/12 04:58:04;;;;;;;8.53;7.73;;;;;;;14.58;80.19;102123.50;2616884;54;20174;-77
2021/08/12 05:00:29;;;;;;;8.77;7.83;;;;;;;14.64;80.03;102133.97;2616301;47;20681;-75
2021/08/12 05:02:54;;;;;;;7.63;6.93;;;;;;;14.68;80.13;102129.78;2617084;54;20134;-76
2021/08/12 05:05:20;;;;;;;8.27;6.77;;;;;;;14.78;79.95;102124.84;2617987;39;20525;-77
2021/08/12 05:07:45;;;;;;;7.00;6.30;;;;;;;14.83;80.02;102125.81;2616647;54;20155;-77
2021/08/12 05:10:10;;;;;;;7.67;6.87;;;;;;;14.95;79.79;102136.41;2617115;47;20621;-77
2021/08/12 05:12:36;;;;;;;6.83;6.20;;;;;;;15.01;79.49;102133.97;2616890;47;20143;-78
2021/08/12 05:15:01;;;;;;;7.13;6.47;;;;;;;15.13;79.84;102141.97;2617002;54;20123;-75
2021/08/12 05:17:27;;;;;;;9.77;8.53;;;;;;;15.33;78.90;102143.28;2617136;54;20515;-76
2021/08/12 05:19:52;;;;;;;7.37;6.67;;;;;;;15.32;78.75;102146.69;2617047;54;20223;-78
2021/08/12 05:22:21;;;;;;;7.10;6.37;;;;;;;15.42;78.66;102146.06;2617793;39;20519;-77
2021/08/12 05:24:47;;;;;;;10.57;9.23;;;;;;;15.86;77.58;102141.78;2661911;36;20238;-76
2021/08/12 05:27:12;;;;;;;11.10;10.10;;;;;;;15.72;77.43;102143.22;2616899;54;20147;-77
2021/08/12 05:29:37;;;;;;;11.17;7.87;;;;;;;15.76;77.76;102132.13;2616961;47;20158;-76
2021/08/12 05:32:03;;;;;;;10.30;9.00;;;;;;;16.00;76.83;102133.47;2616724;54;20127;-77
2021/08/12 05:34:28;;;;;;;8.87;7.27;;;;;;;15.92;77.72;102128.97;2617112;54;20145;-77
2021/08/12 05:36:54;;;;;;;7.63;6.93;;;;;;;15.90;77.86;102134.13;2618247;54;20168;-80
2021/08/12 05:39:19;;;;;;;8.60;7.70;;;;;;;15.94;77.91;102132.47;2619401;54;20132;-80
2021/08/12 05:41:44;;;;;;;7.43;6.73;;;;;;;15.96;77.79;102135.94;2619539;54;20146;-79
2021/08/12 05:44:09;;;;;;;9.00;8.07;;;;;;;16.04;77.83;102124.91;2619758;47;20130;-78
2021/08/12 05:46:35;;;;;;;9.60;8.07;;;;;;;16.16;77.40;102121.69;2619765;39;20588;-79
2021/08/12 05:49:00;;;;;;;9.70;8.70;;;;;;;16.26;76.86;102123.56;2619716;47;20151;-78
2021/08/12 05:51:25;;;;;;;10.43;9.00;;;;;;;16.55;75.81;102117.19;2619583;54;20123;-78
2021/08/12 05:53:51;;;;;;;9.50;8.60;;;;;;;16.48;75.70;102123.13;2619373;47;20119;-80
2021/08/12 05:56:16;;;;;;;10.93;9.50;;;;;;;16.79;75.63;102112.38;2619226;54;20164;-78
2021/08/12 05:58:41;;;;;;;8.67;7.70;;;;;;;16.96;75.25;102116.06;2620325;47;20142;-80
2021/08/12 06:01:09;;;;;;;10.87;9.27;;;;;;;17.35;72.68;102112.28;2619838;54;20157;-80
2021/08/12 06:03:35;;;;;;;9.73;8.73;;;;;;;17.45;71.67;102111.56;2621456;39;20824;-77
2021/08/12 06:06:01;;;;;;;8.67;7.87;;;;;;;17.44;72.41;102114.13;2620286;54;20152;-79
2021/08/12 06:08:26;;;;;;;9.43;7.93;;;;;;;17.23;73.05;102111.25;2620489;54;20147;-80
2021/08/12 06:10:51;;;;;;;7.20;6.50;;;;;;;17.29;73.27;102113.91;2620400;54;20238;-79
2021/08/12 06:13:17;;;;;;;8.37;7.57;;;;;;;17.29;73.27;102106.16;2620109;54;20135;-79
2021/08/12 06:15:42;;;;;;;8.90;7.63;;;;;;;17.41;72.32;102102.03;2620433;54;20154;-79
2021/08/12 06:18:09;;;;;;;6.93;6.30;;;;;;;17.49;73.09;102113.34;2619967;54;20187;-80
2021/08/12 06:20:35;;;;;;;7.77;6.97;;;;;;;17.51;72.94;102106.47;2620500;54;20131;-79
2021/08/12 06:23:00;;;;;;;7.77;7.07;;;;;;;17.79;71.81;102110.22;2619733;47;20136;-79
2021/08/12 06:25:26;;;;;;;8.30;7.50;;;;;;;18.00;71.01;102106.13;2620643;39;20528;-80
2021/08/12 06:27:51;;;;;;;7.67;6.90;;;;;;;17.99;70.67;102100.91;2620552;54;20139;-79
2021/08/12 06:30:16;;;;;;;10.00;8.27;;;;;;;18.45;68.86;102106.56;2619669;39;20602;-79
2021/08/12 06:32:42;;;;;;;10.03;8.43;;;;;;;18.68;68.13;102101.50;2619769;54;20135;-80
2021/08/12 06:35:09;;;;;;;8.90;8.00;;;;;;;18.53;68.59;102101.41;2620483;39;20556;-80
2021/08/12 06:37:42;;;;;;;8.90;8.10;;;;;;;18.64;68.95;102110.13;2620744;39;20575;-79
2021/08/12 06:40:08;;;;;;;7.90;6.83;;;;;;;18.68;69.25;102112.78;2620207;54;20123;-78
2021/08/12 06:42:33;;;;;;;8.40;6.90;;;;;;;18.86;68.58;102114.59;2620018;47;20175;-79
2021/08/12 06:45:00;;;;;;;9.00;7.83;;;;;;;18.97;67.52;102121.59;2620593;31;20685;-81
2021/08/12 06:47:25;;;;;;;10.40;8.40;;;;;;;19.23;66.62;102116.56;2620442;54;20159;-80
2021/08/12 06:49:50;;;;;;;9.00;8.10;;;;;;;19.40;66.25;102113.16;2620734;54;20744;-81
2021/08/12 06:52:15;;;;;;;9.33;8.23;;;;;;;19.54;66.57;102105.44;2620772;39;20872;-79
2021/08/12 06:54:41;;;;;;;8.10;7.37;;;;;;;19.51;65.82;102097.63;2620145;47;20127;-80
2021/08/12 06:57:06;;;;;;;10.37;7.37;;;;;;;19.52;65.90;102095.03;2620321;54;20147;-79
2021/08/12 06:59:31;;;;;;;9.23;7.70;;;;;;;19.79;65.06;102086.44;2620443;46;20123;-80
2021/08/12 07:01:56;;;;;;;9.87;8.37;;;;;;;19.94;64.38;102087.31;2620531;47;20131;-80
2021/08/12 07:04:22;;;;;;;10.57;8.30;;;;;;;19.99;63.97;102092.53;2619722;54;20127;-80
2021/08/12 07:06:47;;;;;;;8.67;7.40;;;;;;;20.11;64.50;102089.97;2619714;47;20163;-79
2021/08/12 07:09:12;;;;;;;9.80;7.77;;;;;;;20.16;65.38;102089.13;2620544;54;20157;-80
2021/08/12 07:11:37;;;;;;;8.83;7.93;;;;;;;20.32;63.54;102087.38;2620560;46;20128;-79
2021/08/12 07:14:02;;;;;;;8.90;8.07;;;;;;;20.38;64.09;102095.19;2620551;46;20145;-78
2021/08/12 07:16:28;;;;;;;8.37;7.53;;;;;;;20.52;64.14;102090.81;2620347;46;20116;-80
2021/08/12 07:18:53;;;;;;;7.83;6.67;;;;;;;20.45;64.43;102097.78;2620108;54;20132;-80
2021/08/12 07:21:20;;;;;;;8.33;7.13;;;;;;;20.61;63.18;102099.50;2620430;54;20128;-78
2021/08/12 07:23:48;;;;;;;7.27;6.57;;;;;;;20.71;62.50;102098.63;2619560;54;20169;-77
2021/08/12 07:26:16;;;;;;;7.73;6.97;;;;;;;20.86;62.13;102102.94;2619311;54;20127;-77
2021/08/12 07:28:43;;;;;;;8.10;7.00;;;;;;;21.04;62.38;102097.69;2620347;39;20628;-79
2021/08/12 07:31:09;;;;;;;7.03;6.33;;;;;;;21.08;62.15;102089.88;2620246;39;20534;-79
2021/08/12 07:33:35;;;;;;;6.87;6.17;;;;;;;21.06;63.22;102088.13;2619890;54;20653;-78
2021/08/12 07:36:00;;;;;;;9.37;7.17;;;;;;;21.36;61.55;102083.66;2619484;54;20164;-80
2021/08/12 07:38:26;;;;;;;5.53;4.97;;;;;;;21.25;62.22;102088.06;2619452;54;20135;-78
2021/08/12 07:40:51;;;;;;;8.50;6.57;;;;;;;21.33;61.84;102091.47;2619724;54;20232;-81
2021/08/12 07:43:16;;;;;;;8.17;7.37;;;;;;;21.65;59.63;102081.75;2620115;39;20459;-78
2021/08/12 07:45:42;;;;;;;6.60;6.00;;;;;;;21.41;59.60;102076.69;2619982;54;20151;-79
2021/08/12 07:48:07;;;;;;;6.47;5.87;;;;;;;21.32;61.14;102075.84;2619340;47;20226;-80
2021/08/12 07:50:32;;;;;;;8.20;6.53;;;;;;;21.40;60.67;102081.91;2619253;54;20119;-80
2021/08/12 07:52:58;;;;;;;6.73;5.80;;;;;;;21.35;60.95;102086.28;2619380;54;20149;-78
2021/08/12 07:55:23;;;;;;;8.77;6.20;;;;;;;21.38;60.88;102084.50;2619254;54;20208;-80
2021/08/12 07:57:48;;;;;;;7.30;6.47;;;;;;;21.88;59.95;102077.28;2618079;54;20167;-79
2021/08/12 08:00:14;;;;;;;6.53;5.90;;;;;;;21.98;59.14;102078.94;2620013;31;20676;-79
2021/08/12 08:02:47;;;;;;;7.27;6.10;;;;;;;22.20;57.46;102071.84;2619739;54;20130;-80
2021/08/12 08:05:16;;;;;;;6.43;5.57;;;;;;;22.60;55.83;102075.81;2619537;54;20111;-80
2021/08/12 08:07:42;;;;;;;6.77;4.90;;;;;;;22.80;55.48;102073.91;2619329;54;20139;-79
2021/08/12 08:10:08;;;;;;;5.90;5.30;;;;;;;23.28;54.05;102057.66;2619512;54;20123;-79
2021/08/12 08:12:33;;;;;;;7.60;5.30;;;;;;;23.24;53.68;102071.63;2619382;54;20130;-79
2021/08/12 08:14:58;;;;;;;5.73;4.83;;;;;;;23.64;51.35;102064.09;2619621;46;20107;-79
2021/08/12 08:17:23;;;;;;;6.80;4.60;;;;;;;23.61;52.05;102069.41;2618820;54;20287;-78
2021/08/12 08:19:49;;;;;;;6.17;5.30;;;;;;;23.81;51.85;102076.03;2619755;54;20139;-79
2021/08/12 08:22:14;;;;;;;5.97;5.27;;;;;;;23.85;51.23;102069.03;2636607;36;20777;-81
2021/08/12 08:24:39;;;;;;;7.00;5.73;;;;;;;23.90;51.91;102081.19;2620109;54;20146;-80
2021/08/12 08:27:04;;;;;;;6.50;5.53;;;;;;;23.59;51.06;102073.78;2624294;54;20146;-77
2021/08/12 08:29:30;;;;;;;6.80;5.43;;;;;;;23.67;51.39;102080.63;2621336;46;20230;-79
2021/08/12 08:31:55;;;;;;;6.97;5.20;;;;;;;23.56;51.16;102077.31;2621731;46;20159;-79
2021/08/12 08:34:20;;;;;;;6.53;5.53;;;;;;;23.07;52.63;102085.78;2622401;54;20155;-79
2021/08/12 08:36:45;;;;;;;6.23;5.10;;;;;;;23.32;52.34;102084.59;2620545;54;20139;-80
2021/08/12 08:39:11;;;;;;;4.80;4.27;;;;;;;23.48;51.98;102075.69;2618478;54;20679;-78
2021/08/12 08:41:37;;;;;;;5.68;4.70;;;;;;;23.49;52.58;102078.28;2617104;54;20138;-77
2021/08/12 08:44:03;;;;;;;5.22;4.72;;;;;;;23.67;52.58;102064.06;2595208;36;20213;-78
2021/08/12 08:46:29;;;;;;;5.83;5.33;;;;;;;23.96;50.95;102062.78;2617514;54;20135;-77
2021/08/12 08:48:57;;;;;;;5.65;5.10;;;;;;;24.19;50.66;102049.28;2616310;54;20135;-78
2021/08/12 08:51:23;;;;;;;5.73;4.90;;;;;;;24.44;49.99;102058.47;2616954;54;20676;-78
2021/08/12 08:53:49;;;;;;;5.30;4.75;;;;;;;24.48;48.89;102055.75;2618483;54;20132;-79
2021/08/12 08:56:16;;;;;;;5.63;5.03;;;;;;;24.76;48.58;102058.75;2617941;54;20225;-79
2021/08/12 08:58:41;;;;;;;5.25;4.55;;;;;;;24.91;49.52;102051.44;2616496;47;20169;-79
2021/08/12 09:01:07;;;;;;;5.05;4.55;;;;;;;25.06;47.61;102052.91;2617867;54;20668;-78
2021/08/12 09:03:33;;;;;;;6.28;5.05;;;;;;;25.09;47.82;102058.94;2618397;54;20116;-78
2021/08/12 09:05:58;;;;;;;5.65;4.95;;;;;;;25.22;47.26;102051.66;2618111;54;20152;-79
2021/08/12 09:08:24;;;;;;;7.03;4.75;;;;;;;25.38;47.30;102058.38;2618994;54;20147;-78
2021/08/12 09:10:50;;;;;;;5.55;4.93;;;;;;;25.48;45.78;102052.88;2617341;54;20124;-76
2021/08/12 09:13:15;;;;;;;5.47;4.82;;;;;;;25.42;46.16;102057.41;2617383;39;20563;-80
2021/08/12 09:15:43;;;;;;;5.97;5.05;;;;;;;25.28;46.71;102049.81;2618064;54;20128;-78
2021/08/12 09:18:25;;;;;;;6.05;4.85;;;;;;;25.10;48.11;102052.78;2619082;39;20545;-79
2021/08/12 09:20:56;;;;;;;5.55;4.82;;;;;;;25.27;48.46;102048.09;2618618;47;20231;-78
2021/08/12 09:23:29;;;;;;;5.55;5.05;;;;;;;25.44;49.17;102050.34;2618346;54;20150;-77
2021/08/12 09:25:55;;;;;;;5.15;4.65;;;;;;;25.70;48.47;102043.59;2618789;54;20131;-80
2021/08/12 09:28:22;;;;;;;6.60;5.20;;;;;;;26.00;45.07;102045.53;2618328;54;20691;-79
2021/08/12 09:31:00;;;;;;;5.97;5.38;;;;;;;26.07;46.11;102044.47;2618425;54;20134;-78
2021/08/12 09:33:27;;;;;;;6.63;5.32;;;;;;;26.17;45.92;102047.72;2618007;54;20135;-78
2021/08/12 09:35:53;;;;;;;5.40;4.90;;;;;;;26.22;45.47;102043.22;2617194;54;20143;-77
2021/08/12 09:38:19;;;;;;;5.60;4.93;;;;;;;26.39;45.62;102051.53;2617134;54;20160;-78
2021/08/12 09:40:51;;;;;;;6.38;5.18;;;;;;;26.45;46.57;102043.47;2617619;54;20131;-79
2021/08/12 09:43:20;;;;;;;7.03;4.78;;;;;;;26.47;45.84;102045.16;2651908;36;20735;-79
2021/08/12 09:45:45;;;;;;;5.43;4.93;;;;;;;26.58;45.28;102051.06;2617144;54;20135;-77
2021/08/12 09:48:17;;;;;;;6.05;5.30;;;;;;;26.68;46.00;102038.50;2617479;47;20167;-78
2021/08/12 09:50:45;;;;;;;5.70;5.20;;;;;;;26.78;45.96;102039.97;2617845;54;20124;-77
2021/08/12 09:53:20;;;;;;;6.07;5.55;;;;;;;27.05;44.00;102031.28;2618695;54;20130;-79
2021/08/12 09:55:47;;;;;;;7.22;5.75;;;;;;;27.09;44.99;102030.28;2617231;54;20123;-78
2021/08/12 09:58:13;;;;;;;5.13;4.70;;;;;;;27.23;44.04;102036.91;2616881;54;20151;-78
2021/08/12 10:00:47;;;;;;;6.20;5.22;;;;;;;27.16;44.50;102026.56;2617993;39;20559;-79
2021/08/12 10:03:38;;;;;;;5.40;4.90;;;;;;;27.24;44.20;102027.22;2618824;39;20594;-78
2021/08/12 10:06:04;;;;;;;6.35;5.75;;;;;;;27.42;43.08;102026.66;2618359;47;20151;-78
2021/08/12 10:08:39;;;;;;;6.38;5.78;;;;;;;27.65;43.68;102014.53;2618304;39;20206;-79
2021/08/12 10:11:24;;;;;;;6.03;5.43;;;;;;;27.65;43.12;102025.03;2618810;54;20131;-78
2021/08/12 10:13:53;;;;;;;5.85;5.15;;;;;;;27.56;42.84;102022.72;2618432;54;20131;-79
2021/08/12 10:16:19;;;;;;;5.45;4.93;;;;;;;27.74;42.37;102015.97;2618273;54;20120;-78
2021/08/12 10:18:46;;;;;;;6.00;5.40;;;;;;;27.76;42.90;102015.03;2618571;54;20237;-78
2021/08/12 10:21:16;;;;;;;5.90;5.38;;;;;;;27.91;42.00;102024.22;2618707;54;20115;-80
2021/08/12 10:23:45;;;;;;;5.53;5.03;;;;;;;28.09;42.84;102016.56;2617305;54;20243;-77
2021/08/12 10:26:10;;;;;;;5.18;4.72;;;;;;;28.23;41.60;102013.47;2618038;54;20150;-78
2021/08/12 10:28:37;;;;;;;5.47;4.97;;;;;;;28.23;40.70;102011.66;2617456;54;20946;-78
2021/08/12 10:31:04;;;;;;;5.85;5.25;;;;;;;28.29;41.33;102014.13;2618254;39;20522;-79
2021/08/12 10:33:30;;;;;;;7.20;5.45;;;;;;;28.14;40.94;102019.06;2618324;54;20115;-79
2021/08/12 10:35:59;;;;;;;6.85;5.28;;;;;;;28.01;41.81;102010.72;2618780;54;20127;-78
2021/08/12 10:38:24;;;;;;;6.60;5.57;;;;;;;27.97;42.54;102011.72;2618759;54;20135;-80
2021/08/12 10:40:53;;;;;;;5.93;5.32;;;;;;;28.20;41.40;102003.03;2619667;47;20171;-78
2021/08/12 10:43:27;;;;;;;5.63;5.13;;;;;;;28.21;41.62;102007.38;2640296;36;20741;-80
2021/08/12 10:45:57;;;;;;;6.60;6.00;;;;;;;28.28;40.99;102001.00;2619523;54;20175;-78
2021/08/12 10:48:24;;;;;;;6.20;5.53;;;;;;;28.37;41.98;102013.84;2619275;54;20176;-80
2021/08/12 10:51:13;;;;;;;5.55;5.05;;;;;;;28.35;41.38;102000.72;2619921;54;20123;-78
2021/08/12 10:53:40;;;;;;;5.85;5.25;;;;;;;28.53;40.79;102001.84;2619748;54;20183;-80
2021/08/12 10:56:13;;;;;;;6.03;5.43;;;;;;;28.75;39.67;102005.44;2620448;54;20131;-76
2021/08/12 10:58:43;;;;;;;6.72;5.18;;;;;;;28.82;41.32;102002.50;2620376;39;20510;-79
2021/08/12 11:01:11;;;;;;;6.45;5.32;;;;;;;29.04;40.01;102000.81;2620041;54;20124;-78
2021/08/12 11:03:43;;;;;;;6.10;5.50;;;;;;;29.05;38.84;101994.63;2618772;51;20136;-79
2021/08/12 11:06:18;;;;;;;7.10;5.72;;;;;;;28.98;39.08;101994.91;2619309;54;20214;-79
2021/08/12 11:08:50;;;;;;;5.78;5.28;;;;;;;29.05;39.63;102002.53;2619004;54;21023;-77
2021/08/12 11:11:27;;;;;;;6.32;5.80;;;;;;;29.09;39.03;101995.34;2620027;54;20112;-78
2021/08/12 11:13:54;;;;;;;6.80;6.13;;;;;;;28.99;39.50;101994.88;2620192;54;20123;-78
2021/08/12 11:16:25;;;;;;;6.28;5.68;;;;;;;28.93;40.12;101995.03;2620173;54;20123;-79
2021/08/12 11:18:51;;;;;;;6.35;5.75;;;;;;;28.77;39.54;102003.59;2619719;54;20170;-78
2021/08/12 11:21:29;;;;;;;6.90;5.97;;;;;;;28.59;40.31;101999.88;2619787;54;20127;-79
2021/08/12 11:23:54;;;;;;;7.05;5.65;;;;;;;28.57;41.20;101999.06;2619911;54;20186;-80